Time;durP1;ratioP1;P1;durP2;ratioP2;P2;SDS_P1;SDS_P2;PMS_P1;PMS_P2;Temp;Humidity;BMP_temperature;BMP_pressure;BME280_temperature;BME280_humidity;BME280_pressure;Samples;Min_cycle;Max_cycle;Signal;HPM_P1;HPM_P2
2021/12/05 00:24:13;;;;;;;10.52;2.50;;;;;;;2.54;93.68;99660.91;5027492;28;20462;-71
2021/12/05 00:26:39;;;;;;;11.70;2.53;;;;;;;2.58;93.40;99659.75;5026581;28;20044;-71
2021/12/05 00:31:57;;;;;;;23.58;3.90;;;;;;;2.49;93.62;99663.09;5025242;28;20041;-71
2021/12/05 01:13:31;;;;;;;18.92;2.85;;;;;;;2.57;92.72;99677.78;5025650;28;20076;-71
2021/12/05 01:16:02;;;;;;;18.38;2.88;;;;;;;2.56;92.76;99668.47;5034661;28;20044;-71
2021/12/05 01:18:28;;;;;;;17.20;2.42;;;;;;;2.56;92.00;99687.19;5007188;28;20088;-71
2021/12/05 01:20:58;;;;;;;30.00;4.45;;;;;;;2.62;91.86;99689.25;5025854;28;20516;-71
2021/12/05 01:26:06;;;;;;;17.13;2.50;;;;;;;2.69;91.06;99684.38;5025821;28;20025;-71
2021/12/05 01:34:09;;;;;;;21.08;3.33;;;;;;;2.69;90.99;99681.81;5026746;28;20021;-71
2021/12/05 01:36:49;;;;;;;20.98;3.17;;;;;;;2.59;91.66;99691.25;5030851;28;20057;-71
2021/12/05 01:42:37;;;;;;;13.73;2.85;;;;;;;2.53;91.86;99687.47;5031768;28;20040;-71
2021/12/05 01:57:51;;;;;;;19.13;2.60;;;;;;;2.64;90.38;99687.34;5028109;28;20116;-70
2021/12/05 02:11:48;;;;;;;16.48;2.20;;;;;;;2.43;91.39;99697.69;5037045;28;20060;-71
2021/12/05 02:38:52;;;;;;;19.55;2.55;;;;;;;2.44;91.99;99701.03;5027851;28;20110;-70
2021/12/05 02:41:20;;;;;;;18.85;3.80;;;;;;;2.29;92.51;99693.72;5025324;28;20065;-71
2021/12/05 02:43:50;;;;;;;15.23;2.65;;;;;;;2.24;92.92;99701.00;5039875;28;20033;-71
2021/12/05 02:46:19;;;;;;;18.63;2.60;;;;;;;2.33;92.57;99697.63;5023623;28;20407;-71
2021/12/05 02:48:45;;;;;;;10.43;2.28;;;;;;;2.32;92.33;99693.47;5027695;28;20033;-71
2021/12/05 02:51:19;;;;;;;12.90;2.53;;;;;;;2.27;92.57;99697.34;5012126;28;20030;-71
2021/12/05 02:53:53;;;;;;;15.77;2.58;;;;;;;2.29;92.68;99693.72;5027444;28;20033;-71
2021/12/05 02:56:21;;;;;;;13.68;2.45;;;;;;;2.38;91.63;99692.13;5026555;28;20071;-71
2021/12/05 02:58:57;;;;;;;11.00;2.65;;;;;;;2.36;92.03;99691.47;5027373;28;20117;-71
2021/12/05 03:01:39;;;;;;;18.27;2.47;;;;;;;2.40;91.40;99687.69;5026206;28;20037;-71
2021/12/05 03:04:08;;;;;;;21.02;3.10;;;;;;;2.32;91.79;99690.09;5014261;28;20043;-71
2021/12/05 03:06:35;;;;;;;13.32;2.47;;;;;;;2.31;92.27;99680.78;5030761;28;20030;-70
2021/12/05 03:09:13;;;;;;;23.02;3.10;;;;;;;2.30;92.19;99692.78;5019313;28;20141;-71
2021/12/05 03:11:39;;;;;;;22.83;2.75;;;;;;;2.41;91.45;99683.38;5024265;28;20488;-71
2021/12/05 03:14:06;;;;;;;22.33;2.90;;;;;;;2.33;91.39;99681.47;5014025;28;20700;-71
2021/12/05 03:16:35;;;;;;;17.20;3.70;;;;;;;2.19;92.35;99685.22;5014636;28;20489;-71
2021/12/05 03:19:01;;;;;;;20.60;2.42;;;;;;;2.22;92.07;99672.13;5027098;28;20037;-71
2021/12/05 03:21:27;;;;;;;15.32;2.58;;;;;;;2.22;92.37;99666.22;5024244;28;20120;-71
2021/12/05 03:23:54;;;;;;;12.18;2.65;;;;;;;2.25;92.15;99668.53;5010791;28;20053;-70
2021/12/05 03:26:25;;;;;;;16.63;3.55;;;;;;;2.19;92.05;99666.50;5007894;28;20472;-71
2021/12/05 03:28:55;;;;;;;23.48;2.55;;;;;;;2.20;92.44;99663.00;5025242;28;20025;-71
2021/12/05 03:31:24;;;;;;;14.77;2.88;;;;;;;2.22;92.15;99661.09;5008742;28;20044;-71
2021/12/05 03:33:51;;;;;;;12.50;2.20;;;;;;;2.25;91.58;99664.22;5023229;28;20079;-71
2021/12/05 03:36:17;;;;;;;19.33;2.58;;;;;;;2.29;91.39;99668.13;5024803;28;20036;-70
2021/12/05 03:38:43;;;;;;;27.80;3.03;;;;;;;2.33;90.85;99666.94;5028257;28;20591;-71
2021/12/05 03:41:12;;;;;;;15.77;2.72;;;;;;;2.24;91.06;99661.78;5028346;28;20484;-70
2021/12/05 03:43:41;;;;;;;11.95;2.58;;;;;;;2.18;91.01;99659.75;5029903;28;20040;-71
2021/12/05 03:46:07;;;;;;;14.48;2.90;;;;;;;2.16;91.45;99666.75;5027646;28;20451;-71
2021/12/05 03:48:38;;;;;;;11.40;2.63;;;;;;;2.13;91.68;99673.75;5026368;28;20033;-71
2021/12/05 03:51:09;;;;;;;19.33;2.92;;;;;;;2.03;91.64;99677.19;5026728;28;20021;-71
2021/12/05 03:53:36;;;;;;;13.52;2.65;;;;;;;2.08;91.60;99670.75;5030587;28;20492;-71
2021/12/05 03:56:04;;;;;;;18.20;3.33;;;;;;;1.90;92.25;99672.28;5028579;28;20132;-71
2021/12/05 03:58:31;;;;;;;17.20;2.60;;;;;;;2.03;92.06;99679.75;5027486;28;20040;-71
2021/12/05 04:00:59;;;;;;;14.63;2.95;;;;;;;2.00;92.05;99674.88;5028481;28;20026;-70
2021/12/05 04:03:27;;;;;;;10.68;2.70;;;;;;;1.88;92.36;99674.16;5027444;28;20046;-71
2021/12/05 04:05:57;;;;;;;13.98;3.00;;;;;;;1.99;92.36;99680.94;5010978;28;20476;-71
2021/12/05 04:08:26;;;;;;;11.52;3.58;;;;;;;2.02;91.80;99666.16;5026273;28;20088;-71
2021/12/05 04:10:57;;;;;;;8.27;2.05;;;;;;;1.95;92.49;99663.28;5026811;28;20032;-71
2021/12/05 04:13:23;;;;;;;21.38;2.80;;;;;;;1.89;92.79;99670.69;5028472;28;20120;-70
2021/12/05 04:15:53;;;;;;;17.48;2.58;;;;;;;1.89;92.85;99665.56;5023212;28;20033;-70
2021/12/05 04:18:19;;;;;;;14.88;1.88;;;;;;;1.90;92.67;99659.50;5026225;28;20037;-71
2021/12/05 04:20:46;;;;;;;12.18;2.38;;;;;;;1.97;92.24;99652.94;5029548;28;20029;-71
2021/12/05 04:23:12;;;;;;;11.45;1.85;;;;;;;1.89;92.58;99656.13;5029411;28;20426;-71
2021/12/05 04:25:38;;;;;;;12.55;2.20;;;;;;;1.79;93.26;99655.31;5029001;28;20480;-71
2021/12/05 04:28:07;;;;;;;12.45;1.65;;;;;;;1.93;92.64;99646.47;5029491;28;20048;-70
2021/12/05 04:30:33;;;;;;;10.90;2.67;;;;;;;1.79;92.45;99651.91;5031300;28;20067;-71
2021/12/05 04:32:59;;;;;;;4.40;1.80;;;;;;;1.78;92.49;99656.22;5025482;28;20037;-71
2021/12/05 04:35:25;;;;;;;8.70;1.50;;;;;;;1.88;92.34;99666.50;5025996;28;20025;-70
2021/12/05 04:37:51;;;;;;;14.07;1.80;;;;;;;1.88;92.04;99656.25;5024799;28;20476;-71
2021/12/05 04:40:17;;;;;;;10.50;1.92;;;;;;;1.80;92.71;99664.56;5023778;28;20657;-71
2021/12/05 04:42:46;;;;;;;11.10;1.67;;;;;;;1.83;92.41;99661.78;5025904;28;20488;-70
2021/12/05 04:45:25;;;;;;;10.07;1.50;;;;;;;1.93;92.33;99662.63;5025794;28;20048;-71
2021/12/05 04:47:53;;;;;;;11.13;1.60;;;;;;;1.85;92.20;99664.22;5032015;28;20087;-71
2021/12/05 04:50:19;;;;;;;8.43;2.13;;;;;;;1.88;91.81;99657.06;5027039;28;20034;-71
2021/12/05 04:52:47;;;;;;;9.90;2.00;;;;;;;1.78;92.18;99663.09;5035769;28;20124;-70
2021/12/05 04:55:14;;;;;;;12.32;2.17;;;;;;;1.78;91.96;99668.19;5029522;28;20057;-71
2021/12/05 04:57:41;;;;;;;11.75;1.77;;;;;;;1.78;92.16;99670.75;5040858;28;20040;-70
2021/12/05 05:00:15;;;;;;;9.60;1.85;;;;;;;1.74;92.66;99663.34;5027346;28;20075;-70
2021/12/05 05:02:41;;;;;;;11.00;2.28;;;;;;;1.71;92.17;99678.09;5026776;28;20405;-71
2021/12/05 05:05:09;;;;;;;14.15;1.58;;;;;;;1.59;92.68;99676.56;5034990;28;20033;-71
2021/12/05 05:07:37;;;;;;;10.38;1.92;;;;;;;1.52;92.96;99673.69;5007752;28;20518;-71
2021/12/05 05:10:13;;;;;;;12.35;1.63;;;;;;;1.60;92.92;99673.91;5033399;28;20112;-71
2021/12/05 05:12:38;;;;;;;13.13;1.58;;;;;;;1.52;92.54;99674.50;5030548;28;20061;-71
2021/12/05 05:15:06;;;;;;;11.05;1.65;;;;;;;1.58;92.57;99673.19;5028106;28;20044;-71
2021/12/05 05:17:33;;;;;;;8.85;2.10;;;;;;;1.51;92.65;99672.09;5026078;28;20071;-70
2021/12/05 05:20:04;;;;;;;5.10;1.50;;;;;;;1.57;92.35;99671.59;5031034;28;20045;-71
2021/12/05 05:22:41;;;;;;;15.07;2.03;;;;;;;1.43;92.53;99677.00;5028952;28;20029;-71
2021/12/05 05:50:52;;;;;;;18.17;2.25;;;;;;;1.55;93.09;99704.13;5027913;28;20048;-70
2021/12/05 05:53:18;;;;;;;16.95;1.65;;;;;;;1.53;93.29;99708.53;5032325;28;20065;-70
2021/12/05 05:55:44;;;;;;;6.97;2.28;;;;;;;1.53;93.43;99704.25;5029243;28;20578;-70
2021/12/05 05:58:14;;;;;;;12.85;3.53;;;;;;;1.67;93.62;99704.84;5031862;28;20124;-71
2021/12/05 06:01:01;;;;;;;6.43;1.35;;;;;;;1.60;93.39;99704.56;5032914;28;20787;-70
2021/12/05 06:03:27;;;;;;;6.53;1.70;;;;;;;1.66;92.96;99705.81;5042573;28;20140;-70
2021/12/05 06:05:59;;;;;;;10.88;1.38;;;;;;;1.65;93.41;99709.28;5015432;28;20120;-71
2021/12/05 06:08:31;;;;;;;11.32;1.73;;;;;;;1.63;93.62;99699.19;5029573;28;20500;-71
2021/12/05 06:11:00;;;;;;;9.80;2.15;;;;;;;1.66;93.76;99703.25;5031720;28;20035;-71
2021/12/05 06:13:27;;;;;;;8.15;1.60;;;;;;;1.73;93.34;99710.28;5035151;28;20037;-71
2021/12/05 06:15:52;;;;;;;8.75;1.75;;;;;;;1.76;93.37;99706.66;5026900;28;20124;-71
2021/12/05 06:18:18;;;;;;;10.45;1.60;;;;;;;1.74;93.02;99704.22;5027115;28;20036;-71
2021/12/05 06:20:44;;;;;;;7.28;1.27;;;;;;;1.84;93.03;99704.28;5025836;28;20091;-71
2021/12/05 06:23:12;;;;;;;9.38;1.45;;;;;;;1.98;91.70;99710.00;5029947;28;20262;-71
2021/12/05 06:25:40;;;;;;;9.23;1.38;;;;;;;1.92;92.11;99709.59;5024409;28;20112;-71
2021/12/05 06:28:11;;;;;;;7.03;1.30;;;;;;;2.07;91.31;99710.06;5029670;28;20079;-71
2021/12/05 06:31:02;;;;;;;11.90;1.63;;;;;;;2.18;90.43;99713.47;5027985;28;20037;-71
2021/12/05 06:39:19;;;;;;;4.68;1.20;;;;;;;2.13;89.92;99713.88;5029432;28;20117;-71
2021/12/05 06:42:35;;;;;;;11.38;1.10;;;;;;;2.14;90.15;99715.47;5025933;28;20037;-71
2021/12/05 06:47:24;;;;;;;8.68;1.10;;;;;;;2.29;89.25;99716.75;5022471;28;20048;-71
2021/12/05 06:49:51;;;;;;;4.13;1.30;;;;;;;2.30;89.33;99713.25;5027352;28;20043;-70
2021/12/05 06:52:17;;;;;;;12.77;1.33;;;;;;;2.20;89.50;99724.38;5027874;28;20500;-70
2021/12/05 06:54:43;;;;;;;4.78;1.55;;;;;;;2.14;89.73;99725.69;5025267;28;20029;-71
2021/12/05 06:57:09;;;;;;;7.45;1.52;;;;;;;2.23;89.64;99729.25;5025154;28;20043;-71
2021/12/05 06:59:38;;;;;;;10.52;1.98;;;;;;;2.35;88.75;99725.66;5028960;28;20037;-70
2021/12/05 07:02:04;;;;;;;6.70;1.73;;;;;;;2.38;88.66;99725.41;5025298;28;20432;-70
2021/12/05 07:04:47;;;;;;;4.60;1.55;;;;;;;2.33;88.68;99737.75;5029880;28;20040;-71
2021/12/05 07:07:21;;;;;;;3.97;1.10;;;;;;;2.29;88.93;99733.84;5026427;28;20037;-70
2021/12/05 07:09:48;;;;;;;4.32;1.13;;;;;;;2.40;88.23;99745.75;5028709;28;20381;-71
2021/12/05 07:12:49;;;;;;;4.28;1.40;;;;;;;2.39;88.17;99736.44;5026427;28;20036;-71
2021/12/05 07:22:52;;;;;;;7.47;1.67;;;;;;;2.41;88.04;99748.19;5026848;28;20025;-71
2021/12/05 07:25:44;;;;;;;9.90;1.98;;;;;;;2.42;88.43;99752.34;5033134;28;20041;-71
2021/12/05 07:41:56;;;;;;;5.82;2.10;;;;;;;2.51;88.57;99778.94;5027710;28;20121;-71
2021/12/05 07:44:22;;;;;;;10.02;2.30;;;;;;;2.40;88.94;99777.25;5032618;28;20029;-71
2021/12/05 07:46:48;;;;;;;10.73;2.75;;;;;;;2.41;89.39;99783.19;5029627;28;20604;-71
2021/12/05 07:49:16;;;;;;;4.05;1.88;;;;;;;2.39;90.09;99790.97;5029735;28;20287;-71
2021/12/05 07:51:46;;;;;;;14.70;4.85;;;;;;;2.52;89.73;99788.22;5029198;28;20063;-71
2021/12/05 07:56:53;;;;;;;17.63;7.03;;;;;;;2.41;89.94;99803.66;5029043;28;20515;-71
2021/12/05 07:59:40;;;;;;;13.30;5.22;;;;;;;2.38;90.59;99799.59;5041305;28;20034;-71
2021/12/05 08:15:58;;;;;;;12.57;3.10;;;;;;;2.28;91.38;99812.34;5030948;28;20044;-71
2021/12/05 08:18:24;;;;;;;11.82;3.92;;;;;;;2.39;91.72;99814.00;5025251;28;20045;-71
2021/12/05 08:20:49;;;;;;;12.82;3.15;;;;;;;2.46;90.94;99804.88;5025349;28;20033;-70
2021/12/05 08:23:16;;;;;;;10.65;2.80;;;;;;;2.44;91.34;99809.31;5029604;28;20069;-71
2021/12/05 08:25:48;;;;;;;9.50;3.78;;;;;;;2.44;91.57;99814.44;5027167;28;20048;-71
2021/12/05 08:28:26;;;;;;;10.55;2.40;;;;;;;2.54;91.53;99811.91;5029329;28;20038;-70
2021/12/05 08:31:10;;;;;;;16.02;5.53;;;;;;;2.55;91.21;99818.69;5027001;28;20029;-71
2021/12/05 08:41:34;;;;;;;7.32;3.00;;;;;;;2.39;92.81;99831.91;5030021;28;20067;-71
2021/12/05 09:08:32;;;;;;;25.10;10.63;;;;;;;2.61;93.67;99856.56;5034383;28;20225;-71
2021/12/05 10:02:48;;;;;;;12.15;4.80;;;;;;;3.05;92.74;99921.19;5029936;28;20085;-71
2021/12/05 10:13:53;;;;;;;10.98;4.70;;;;;;;3.17;92.63;99923.66;5029048;28;20395;-71
2021/12/05 10:16:36;;;;;;;15.25;5.38;;;;;;;3.11;93.18;99933.47;5029987;28;20041;-71
2021/12/05 10:38:29;;;;;;;11.75;4.15;;;;;;;3.21;94.35;99943.75;5027123;28;20029;-71
2021/12/05 10:41:18;;;;;;;11.02;4.07;;;;;;;3.25;94.13;99944.31;5027023;28;20420;-71
2021/12/05 10:43:46;;;;;;;8.73;3.88;;;;;;;3.37;93.54;99945.84;5023551;28;20106;-71
2021/12/05 10:46:15;;;;;;;15.98;5.43;;;;;;;3.33;94.06;99953.91;5028126;28;20030;-71
2021/12/05 10:48:49;;;;;;;13.57;4.18;;;;;;;3.56;93.61;99947.66;5023092;28;20441;-71
2021/12/05 10:51:19;;;;;;;10.63;5.20;;;;;;;3.51;93.87;99942.91;5024288;28;20041;-71
2021/12/05 10:53:50;;;;;;;7.43;4.00;;;;;;;3.48;94.05;99945.75;5025950;28;20040;-71
2021/12/05 10:56:21;;;;;;;15.55;4.28;;;;;;;3.51;94.27;99947.22;5026716;28;20045;-71
2021/12/05 10:58:55;;;;;;;9.35;4.47;;;;;;;3.61;94.00;99952.38;5028751;28;20037;-71
2021/12/05 11:01:32;;;;;;;7.53;4.05;;;;;;;3.65;93.51;99948.59;5027213;28;20052;-71
2021/12/05 11:04:09;;;;;;;15.25;4.70;;;;;;;3.71;93.68;99953.19;5026706;28;20029;-72
2021/12/05 11:06:38;;;;;;;11.30;4.10;;;;;;;3.74;94.02;99942.69;5028379;28;20628;-71
2021/12/05 11:09:13;;;;;;;10.48;4.82;;;;;;;3.80;94.20;99951.59;5031311;28;20040;-71
2021/12/05 11:11:43;;;;;;;12.63;5.60;;;;;;;3.88;93.84;99942.31;5029267;28;20121;-71
2021/12/05 11:14:12;;;;;;;10.90;4.70;;;;;;;3.97;93.87;99950.94;5027756;28;20032;-71
2021/12/05 11:16:53;;;;;;;8.30;4.25;;;;;;;4.05;92.58;99947.69;5031421;28;20029;-71
2021/12/05 11:19:23;;;;;;;10.30;3.33;;;;;;;4.10;91.79;99948.13;5025969;28;20040;-71
2021/12/05 11:22:16;;;;;;;8.27;4.15;;;;;;;4.11;91.85;99942.06;5030278;28;20044;-71
2021/12/05 11:24:53;;;;;;;7.75;3.83;;;;;;;4.15;91.81;99945.97;5027089;28;20041;-71
2021/12/05 11:27:20;;;;;;;12.38;4.57;;;;;;;4.26;90.66;99948.41;5005090;28;20040;-71
2021/12/05 11:29:59;;;;;;;8.85;4.03;;;;;;;4.33;90.96;99942.72;5023701;28;20044;-71
2021/12/05 11:32:37;;;;;;;10.10;3.95;;;;;;;4.26;91.08;99952.72;5025661;28;20041;-71
2021/12/05 11:35:32;;;;;;;11.68;3.95;;;;;;;4.21;90.40;99957.44;5039443;28;20419;-71
2021/12/05 11:38:13;;;;;;;8.43;4.35;;;;;;;4.31;91.29;99955.69;5024911;28;20080;-71
2021/12/05 11:40:41;;;;;;;12.95;4.70;;;;;;;4.29;90.41;99955.84;5020676;28;20037;-71
2021/12/05 11:43:08;;;;;;;9.07;3.65;;;;;;;4.43;90.50;99953.78;5029647;28;20048;-71
2021/12/05 11:46:00;;;;;;;12.05;3.30;;;;;;;4.30;91.36;99961.78;5025763;28;20036;-71
2021/12/05 11:48:30;;;;;;;9.48;3.05;;;;;;;4.37;90.16;99962.84;5032029;28;20041;-71
2021/12/05 11:50:58;;;;;;;8.82;2.83;;;;;;;4.32;90.73;99962.44;5024748;28;20037;-71
2021/12/05 11:53:43;;;;;;;6.25;2.85;;;;;;;4.48;88.45;99955.00;5033077;28;20137;-71
2021/12/05 11:56:15;;;;;;;13.65;4.47;;;;;;;4.43;89.22;99953.78;5022033;28;20207;-71
2021/12/05 11:58:42;;;;;;;7.60;2.38;;;;;;;4.45;88.51;99967.31;5036962;28;20041;-71
2021/12/05 12:01:12;;;;;;;8.48;2.22;;;;;;;4.63;88.33;99965.66;5030674;28;20025;-71
2021/12/05 12:03:38;;;;;;;7.45;2.30;;;;;;;4.60;86.33;99962.56;5034184;28;20164;-71
2021/12/05 12:06:05;;;;;;;20.65;4.75;;;;;;;4.63;87.67;99967.41;5031003;28;20037;-71
2021/12/05 12:08:31;;;;;;;8.02;3.08;;;;;;;4.81;85.82;99968.31;5034970;28;20029;-71
2021/12/05 12:10:59;;;;;;;9.43;2.58;;;;;;;4.83;86.79;99968.19;5012552;28;20476;-71
2021/12/05 12:13:31;;;;;;;6.25;2.33;;;;;;;4.84;86.07;99965.47;5034978;28;20627;-71
2021/12/05 12:16:00;;;;;;;9.88;3.38;;;;;;;4.82;85.63;99966.56;5033255;28;20116;-71
2021/12/05 12:18:32;;;;;;;4.07;1.50;;;;;;;4.81;84.25;99963.19;5030096;28;20044;-71
2021/12/05 12:21:33;;;;;;;9.38;1.70;;;;;;;4.82;83.74;99963.97;5031719;28;20029;-71
2021/12/05 12:23:59;;;;;;;6.35;1.40;;;;;;;4.79;83.74;99969.41;5027599;28;20045;-71
2021/12/05 12:26:25;;;;;;;7.68;1.83;;;;;;;4.73;84.06;99970.78;5031027;28;20152;-71
2021/12/05 12:28:52;;;;;;;2.55;1.20;;;;;;;4.69;83.91;99969.44;5029194;28;20021;-71
2021/12/05 12:31:31;;;;;;;6.25;2.30;;;;;;;4.74;83.99;99974.97;5030240;28;20040;-71
2021/12/05 12:34:02;;;;;;;4.07;1.80;;;;;;;4.74;85.50;99972.38;5036302;28;20029;-71
2021/12/05 12:36:40;;;;;;;6.35;1.35;;;;;;;4.80;84.66;99974.41;5026617;28;20136;-71
2021/12/05 12:39:21;;;;;;;7.05;3.58;;;;;;;4.78;83.86;99973.72;5030426;28;20075;-71
2021/12/05 12:42:16;;;;;;;6.15;1.88;;;;;;;4.78;84.46;99976.28;5029772;28;20127;-71
2021/12/05 12:45:00;;;;;;;4.70;1.70;;;;;;;4.91;84.72;99976.00;5032071;28;20424;-71
2021/12/05 12:47:31;;;;;;;4.35;1.90;;;;;;;4.89;83.23;99972.75;5035061;28;20022;-71
2021/12/05 12:50:35;;;;;;;11.88;3.88;;;;;;;4.86;84.02;99975.63;5033044;28;20205;-71
2021/12/05 12:53:22;;;;;;;9.25;2.97;;;;;;;4.90;82.89;99982.09;5032185;28;20075;-71
2021/12/05 12:55:53;;;;;;;7.95;2.83;;;;;;;4.79;84.68;99985.63;5031279;28;20030;-71
2021/12/05 12:58:34;;;;;;;10.05;3.20;;;;;;;4.79;86.04;99993.34;5034589;28;20048;-71
2021/12/05 13:01:14;;;;;;;3.83;2.13;;;;;;;4.80;86.14;99994.97;5033462;28;20029;-71
2021/12/05 13:12:55;;;;;;;4.75;1.13;;;;;;;4.78;84.92;100012.25;5001694;28;20140;-71
2021/12/05 13:15:29;;;;;;;5.88;1.30;;;;;;;4.72;84.87;100014.56;5035296;28;20044;-70
2021/12/05 13:17:59;;;;;;;3.90;1.50;;;;;;;4.71;85.24;100012.94;5034209;28;20036;-71
2021/12/05 13:20:53;;;;;;;5.43;1.88;;;;;;;4.82;83.97;100013.63;5031736;28;20034;-71
2021/12/05 13:23:36;;;;;;;2.72;1.40;;;;;;;4.83;84.80;100020.38;5021767;28;20029;-71
2021/12/05 13:26:19;;;;;;;9.32;3.00;;;;;;;4.93;83.00;100016.97;5021652;28;20044;-71
2021/12/05 13:29:12;;;;;;;15.45;4.70;;;;;;;4.94;83.59;100027.13;5026550;28;20112;-70
2021/12/05 13:31:46;;;;;;;11.70;3.63;;;;;;;4.82;84.10;100021.34;5024541;28;20124;-71
2021/12/05 13:34:24;;;;;;;9.48;3.78;;;;;;;4.68;84.67;100030.25;5025334;28;20045;-71
2021/12/05 13:37:05;;;;;;;9.52;3.00;;;;;;;4.63;85.52;100034.19;5023192;28;20121;-71
2021/12/05 13:39:30;;;;;;;4.78;1.95;;;;;;;4.65;85.08;100034.84;5035777;28;20036;-71
2021/12/05 13:42:11;;;;;;;5.32;1.55;;;;;;;4.56;85.45;100035.66;5028970;28;20033;-70
2021/12/05 13:45:05;;;;;;;5.95;2.05;;;;;;;4.63;85.17;100047.00;5018918;28;20029;-71
2021/12/05 13:47:39;;;;;;;5.22;2.33;;;;;;;4.57;85.83;100043.22;5046228;28;20029;-70
2021/12/05 13:52:55;;;;;;;10.00;3.30;;;;;;;4.62;86.57;100055.69;5030438;28;20048;-71
2021/12/05 13:55:53;;;;;;;8.80;3.65;;;;;;;4.58;86.98;100062.03;5028382;28;20048;-71
2021/12/05 13:58:44;;;;;;;12.20;4.28;;;;;;;4.67;87.19;100059.47;5013607;28;20136;-71
2021/12/05 14:01:19;;;;;;;8.27;3.17;;;;;;;4.60;87.34;100063.50;5040258;28;20073;-70
2021/12/05 14:03:57;;;;;;;12.43;3.67;;;;;;;4.63;88.44;100075.25;5033891;28;20396;-71
2021/12/05 14:06:36;;;;;;;6.95;3.22;;;;;;;4.45;88.73;100085.41;5024811;28;20044;-70
2021/12/05 14:09:15;;;;;;;6.25;2.65;;;;;;;4.34;89.76;100090.66;5038303;28;20498;-71
2021/12/05 14:11:43;;;;;;;12.30;3.38;;;;;;;4.30;90.37;100102.94;5028590;28;20041;-71
2021/12/05 14:14:09;;;;;;;8.40;2.95;;;;;;;4.30;90.47;100095.25;5035384;28;20025;-71
2021/12/05 14:16:41;;;;;;;10.75;4.32;;;;;;;4.25;90.02;100099.94;5031229;28;20033;-71
2021/12/05 14:19:10;;;;;;;14.77;6.80;;;;;;;4.24;90.52;100099.16;5029482;28;20199;-71
2021/12/05 14:21:42;;;;;;;19.42;10.05;;;;;;;4.23;90.09;100104.41;5031117;28;20033;-71
2021/12/05 14:24:09;;;;;;;18.40;8.88;;;;;;;4.21;90.80;100109.66;5026510;28;20033;-71
2021/12/05 14:26:39;;;;;;;9.30;4.10;;;;;;;4.27;90.37;100116.03;5027809;28;20029;-70
2021/12/05 14:29:12;;;;;;;6.22;3.47;;;;;;;4.23;90.30;100119.81;5033350;28;20124;-71
2021/12/05 14:31:40;;;;;;;;;;;;;;;4.21;90.71;100124.25;5015998;28;20116;-71
2021/12/05 14:34:06;;;;;;;9.98;3.45;;;;;;;4.19;90.95;100126.16;5024965;28;19952;-71
2021/12/05 14:36:36;;;;;;;6.88;3.00;;;;;;;4.18;90.99;100129.66;5030267;28;20044;-71
2021/12/05 14:39:35;;;;;;;6.90;3.15;;;;;;;4.15;91.12;100132.50;5032344;28;20807;-71
2021/12/05 14:42:08;;;;;;;4.78;2.80;;;;;;;4.14;90.80;100135.97;5037504;28;20391;-71
2021/12/05 14:44:33;;;;;;;6.80;2.60;;;;;;;4.12;90.68;100135.31;5018523;28;20375;-71
2021/12/05 14:47:10;;;;;;;7.07;3.33;;;;;;;4.12;90.81;100140.44;5029358;28;20590;-71
2021/12/05 14:49:43;;;;;;;5.03;2.60;;;;;;;4.10;90.46;100132.88;5039045;28;20056;-71
2021/12/05 14:52:11;;;;;;;;;;;;;;;4.13;90.35;100142.06;5031487;28;20030;-71
2021/12/05 14:54:39;;;;;;;7.30;3.10;;;;;;;4.15;89.26;100142.75;5035983;28;19956;-71
2021/12/05 14:57:26;;;;;;;9.40;2.20;;;;;;;4.10;90.20;100148.25;5041268;28;20513;-71
2021/12/05 15:00:03;;;;;;;7.93;2.35;;;;;;;4.14;89.14;100143.69;5038810;28;20554;-71
2021/12/05 15:02:29;;;;;;;4.93;2.03;;;;;;;4.05;89.36;100150.41;5033830;28;20060;-71
2021/12/05 15:04:54;;;;;;;5.28;3.10;;;;;;;4.03;90.13;100157.41;5038261;28;20423;-71
2021/12/05 15:07:24;;;;;;;9.60;5.38;;;;;;;4.02;90.40;100153.25;5033236;28;20090;-71
2021/12/05 15:09:53;;;;;;;11.18;6.50;;;;;;;4.01;90.66;100160.13;5043755;28;20037;-71
2021/12/05 15:12:28;;;;;;;8.32;4.55;;;;;;;4.01;90.71;100160.13;5033783;28;20026;-71
2021/12/05 15:14:58;;;;;;;9.07;3.65;;;;;;;4.04;90.87;100165.00;5036020;28;20511;-71
2021/12/05 15:17:26;;;;;;;6.65;3.10;;;;;;;4.08;90.88;100174.03;5030189;28;20079;-71
2021/12/05 15:19:57;;;;;;;7.63;3.17;;;;;;;4.06;90.21;100178.50;5033508;28;20039;-71
2021/12/05 15:22:23;;;;;;;7.32;3.75;;;;;;;4.00;90.72;100180.78;5033239;28;20431;-71
2021/12/05 15:24:57;;;;;;;11.32;4.30;;;;;;;3.97;91.61;100186.97;5028676;28;20044;-71
2021/12/05 15:27:26;;;;;;;5.05;2.80;;;;;;;3.97;91.48;100188.72;5022478;28;20033;-71
2021/12/05 15:29:58;;;;;;;8.55;3.03;;;;;;;3.97;91.49;100189.53;5023084;28;20037;-71
2021/12/05 15:32:26;;;;;;;6.63;2.65;;;;;;;3.94;91.62;100192.38;5033177;28;20053;-74
2021/12/05 15:34:56;;;;;;;6.05;2.53;;;;;;;3.94;91.75;100199.22;5030280;28;20074;-73
2021/12/05 15:37:22;;;;;;;5.68;2.95;;;;;;;3.89;92.14;100199.63;5026806;28;20041;-73
2021/12/05 15:39:50;;;;;;;5.07;3.20;;;;;;;3.86;92.39;100202.44;5030331;28;20143;-73
2021/12/05 15:42:25;;;;;;;6.45;3.28;;;;;;;3.83;91.96;100211.19;5035000;28;20037;-73
2021/12/05 15:44:54;;;;;;;7.78;3.17;;;;;;;3.84;92.14;100212.00;5028914;28;20399;-73
2021/12/05 15:47:23;;;;;;;6.30;3.15;;;;;;;3.84;92.76;100217.13;5034476;28;20029;-73
2021/12/05 15:50:00;;;;;;;5.80;2.97;;;;;;;3.81;92.79;100225.09;5034012;28;20020;-74
2021/12/05 15:52:40;;;;;;;5.72;2.97;;;;;;;3.79;92.75;100232.13;5026151;28;20041;-73
2021/12/05 15:55:12;;;;;;;4.07;2.50;;;;;;;3.77;92.80;100229.66;5042261;28;20047;-72
2021/12/05 15:57:40;;;;;;;;;;;;;;;3.75;92.91;100234.13;5037346;28;20056;-74
2021/12/05 16:00:11;;;;;;;6.82;2.70;;;;;;;3.74;93.13;100239.34;5031050;28;20003;-73
2021/12/05 16:02:39;;;;;;;5.32;3.25;;;;;;;3.73;93.01;100248.81;5029635;28;20041;-73
2021/12/05 16:05:16;;;;;;;6.93;2.83;;;;;;;3.72;93.15;100252.31;5008381;28;20072;-73
2021/12/05 16:07:42;;;;;;;4.32;2.42;;;;;;;3.70;93.15;100252.41;5029874;28;20036;-73
2021/12/05 16:10:23;;;;;;;4.82;2.47;;;;;;;3.70;93.13;100251.63;5030834;28;20560;-72
2021/12/05 16:12:52;;;;;;;4.75;2.13;;;;;;;3.66;92.98;100260.50;5031508;28;20060;-75
2021/12/05 16:15:24;;;;;;;5.47;2.88;;;;;;;3.64;93.46;100249.56;5028483;28;20500;-74
2021/12/05 16:17:57;;;;;;;6.22;2.35;;;;;;;3.62;93.28;100267.63;5029933;28;20500;-73
2021/12/05 16:20:27;;;;;;;5.00;2.37;;;;;;;3.58;93.31;100267.97;5036815;28;20067;-73
2021/12/05 16:23:09;;;;;;;8.75;2.58;;;;;;;3.52;92.85;100274.41;5039318;28;20029;-73
2021/12/05 16:25:54;;;;;;;7.83;2.67;;;;;;;3.48;92.85;100276.44;5035623;28;20037;-73
2021/12/05 16:28:26;;;;;;;4.43;2.40;;;;;;;3.42;93.19;100283.78;5031405;28;20490;-73
2021/12/05 16:31:07;;;;;;;5.90;2.72;;;;;;;3.41;93.20;100289.84;5027437;28;20025;-73
2021/12/05 16:33:34;;;;;;;6.28;2.63;;;;;;;3.41;93.51;100298.38;5032800;28;20045;-74
2021/12/05 16:36:01;;;;;;;7.80;2.83;;;;;;;3.41;93.83;100305.22;5035926;28;20024;-73
2021/12/05 16:38:50;;;;;;;4.45;2.50;;;;;;;3.40;93.74;100306.97;5029810;28;20416;-73
2021/12/05 16:41:21;;;;;;;13.93;7.05;;;;;;;3.40;93.81;100314.66;5022538;28;20038;-73
2021/12/05 16:43:57;;;;;;;17.05;7.85;;;;;;;3.40;93.86;100313.84;5032878;28;20067;-73
2021/12/05 16:46:27;;;;;;;14.23;7.50;;;;;;;3.37;94.01;100324.34;5026242;28;20040;-73
2021/12/05 16:48:53;;;;;;;16.88;7.20;;;;;;;3.34;94.27;100317.72;5031005;28;20033;-73
2021/12/05 16:51:29;;;;;;;19.00;7.60;;;;;;;3.35;94.37;100328.78;5028721;28;20036;-73
2021/12/05 16:54:03;;;;;;;16.70;8.23;;;;;;;3.35;94.63;100331.34;5045829;28;20033;-73
2021/12/05 16:56:48;;;;;;;20.80;8.73;;;;;;;3.35;94.69;100339.03;5027083;28;20037;-72
2021/12/05 16:59:22;;;;;;;24.52;10.05;;;;;;;3.34;94.69;100345.09;5024989;28;20048;-73
2021/12/05 17:02:07;;;;;;;23.98;11.57;;;;;;;3.33;94.63;100343.47;5030243;28;20435;-73
2021/12/05 17:05:05;;;;;;;19.90;8.57;;;;;;;3.31;94.78;100353.81;5023720;28;20488;-73
2021/12/05 17:08:06;;;;;;;17.48;7.78;;;;;;;3.29;95.12;100355.69;5024864;28;20033;-74
2021/12/05 17:10:42;;;;;;;20.08;8.93;;;;;;;3.27;95.11;100358.38;5029909;28;20044;-73
2021/12/05 17:13:26;;;;;;;23.33;9.75;;;;;;;3.29;95.46;100358.25;5028080;28;20485;-73
2021/12/05 17:16:01;;;;;;;18.55;8.18;;;;;;;3.32;95.12;100365.72;5025589;28;20036;-73
2021/12/05 17:18:46;;;;;;;12.30;6.53;;;;;;;3.29;95.35;100366.75;5031374;28;20037;-73
2021/12/05 17:21:14;;;;;;;12.30;7.20;;;;;;;3.33;95.48;100361.41;5026664;28;20052;-72